sensor_id;sensor_type;location;lat;lon;timestamp;P1;durP1;ratioP1;P2;durP2;ratioP2
67747;SDS011;54543;50.712;6.070;2022-08-19T00:00:18;6.45;;;5.43;;
67747;SDS011;54543;50.712;6.070;2022-08-19T00:02:44;9.63;;;6.25;;
67747;SDS011;54543;50.712;6.070;2022-08-19T00:05:11;8.60;;;6.40;;
67747;SDS011;54543;50.712;6.070;2022-08-19T00:07:37;7.45;;;6.28;;
67747;SDS011;54543;50.712;6.070;2022-08-19T00:10:06;7.90;;;5.85;;
67747;SDS011;54543;50.712;6.070;2022-08-19T00:12:33;9.43;;;6.47;;
67747;SDS011;54543;50.712;6.070;2022-08-19T00:14:59;7.95;;;6.65;;
67747;SDS011;54543;50.712;6.070;2022-08-19T00:17:25;7.18;;;6.22;;
67747;SDS011;54543;50.712;6.070;2022-08-19T00:19:51;7.40;;;6.25;;
67747;SDS011;54543;50.712;6.070;2022-08-19T00:22:16;7.53;;;6.25;;
67747;SDS011;54543;50.712;6.070;2022-08-19T00:24:45;8.98;;;6.28;;
67747;SDS011;54543;50.712;6.070;2022-08-19T00:27:11;7.22;;;6.30;;
67747;SDS011;54543;50.712;6.070;2022-08-19T00:29:37;8.63;;;6.65;;
67747;SDS011;54543;50.712;6.070;2022-08-19T00:32:03;6.90;;;5.68;;
67747;SDS011;54543;50.712;6.070;2022-08-19T00:34:30;7.50;;;6.22;;
67747;SDS011;54543;50.712;6.070;2022-08-19T00:36:56;7.90;;;6.18;;
67747;SDS011;54543;50.712;6.070;2022-08-19T00:39:22;7.05;;;5.97;;
67747;SDS011;54543;50.712;6.070;2022-08-19T00:41:50;7.30;;;6.40;;
67747;SDS011;54543;50.712;6.070;2022-08-19T00:44:20;7.80;;;6.72;;
67747;SDS011;54543;50.712;6.070;2022-08-19T00:46:49;8.48;;;6.50;;
67747;SDS011;54543;50.712;6.070;2022-08-19T00:51:51;9.18;;;6.38;;
67747;SDS011;54543;50.712;6.070;2022-08-19T00:54:20;7.35;;;6.15;;
67747;SDS011;54543;50.712;6.070;2022-08-19T00:56:47;8.30;;;6.60;;
67747;SDS011;54543;50.712;6.070;2022-08-19T00:59:13;8.43;;;6.35;;
67747;SDS011;54543;50.712;6.070;2022-08-19T01:01:41;9.10;;;6.75;;
67747;SDS011;54543;50.712;6.070;2022-08-19T01:04:09;8.48;;;6.38;;
67747;SDS011;54543;50.712;6.070;2022-08-19T01:06:35;8.25;;;6.75;;
67747;SDS011;54543;50.712;6.070;2022-08-19T01:09:02;8.38;;;6.72;;
67747;SDS011;54543;50.712;6.070;2022-08-19T01:11:29;8.90;;;6.55;;
67747;SDS011;54543;50.712;6.070;2022-08-19T01:13:58;8.77;;;6.72;;
67747;SDS011;54543;50.712;6.070;2022-08-19T01:16:24;9.88;;;7.13;;
67747;SDS011;54543;50.712;6.070;2022-08-19T01:18:52;8.90;;;6.78;;
67747;SDS011;54543;50.712;6.070;2022-08-19T01:21:31;9.27;;;7.30;;
67747;SDS011;54543;50.712;6.070;2022-08-19T01:24:01;8.50;;;6.45;;
67747;SDS011;54543;50.712;6.070;2022-08-19T01:26:27;8.15;;;6.85;;
67747;SDS011;54543;50.712;6.070;2022-08-19T01:28:55;8.02;;;6.43;;
67747;SDS011;54543;50.712;6.070;2022-08-19T01:31:23;8.85;;;6.90;;
67747;SDS011;54543;50.712;6.070;2022-08-19T01:33:52;8.25;;;6.40;;
67747;SDS011;54543;50.712;6.070;2022-08-19T01:36:31;11.02;;;7.80;;
67747;SDS011;54543;50.712;6.070;2022-08-19T01:39:03;9.77;;;7.30;;
67747;SDS011;54543;50.712;6.070;2022-08-19T01:41:32;8.85;;;6.93;;
67747;SDS011;54543;50.712;6.070;2022-08-19T01:43:58;8.10;;;6.80;;
67747;SDS011;54543;50.712;6.070;2022-08-19T01:46:26;9.85;;;6.88;;
67747;SDS011;54543;50.712;6.070;2022-08-19T01:48:51;8.18;;;6.72;;
67747;SDS011;54543;50.712;6.070;2022-08-19T01:51:17;8.98;;;6.63;;
67747;SDS011;54543;50.712;6.070;2022-08-19T01:53:45;8.35;;;6.72;;
67747;SDS011;54543;50.712;6.070;2022-08-19T01:56:12;10.27;;;7.13;;
67747;SDS011;54543;50.712;6.070;2022-08-19T01:58:39;9.25;;;7.10;;
67747;SDS011;54543;50.712;6.070;2022-08-19T02:01:11;10.18;;;7.57;;
67747;SDS011;54543;50.712;6.070;2022-08-19T02:03:37;9.82;;;7.40;;
67747;SDS011;54543;50.712;6.070;2022-08-19T02:06:03;10.15;;;7.78;;
67747;SDS011;54543;50.712;6.070;2022-08-19T02:08:30;10.32;;;7.95;;
67747;SDS011;54543;50.712;6.070;2022-08-19T02:10:58;8.73;;;6.88;;
67747;SDS011;54543;50.712;6.070;2022-08-19T02:13:24;9.00;;;7.13;;
67747;SDS011;54543;50.712;6.070;2022-08-19T02:15:50;9.10;;;7.10;;
67747;SDS011;54543;50.712;6.070;2022-08-19T02:18:15;10.57;;;7.60;;
67747;SDS011;54543;50.712;6.070;2022-08-19T02:20:41;7.97;;;6.72;;
67747;SDS011;54543;50.712;6.070;2022-08-19T02:23:08;10.18;;;7.43;;
67747;SDS011;54543;50.712;6.070;2022-08-19T02:25:36;9.85;;;6.43;;
67747;SDS011;54543;50.712;6.070;2022-08-19T02:28:02;8.60;;;6.85;;
67747;SDS011;54543;50.712;6.070;2022-08-19T02:30:27;8.75;;;6.82;;
67747;SDS011;54543;50.712;6.070;2022-08-19T02:32:53;9.60;;;7.70;;
67747;SDS011;54543;50.712;6.070;2022-08-19T02:35:19;10.05;;;7.55;;
67747;SDS011;54543;50.712;6.070;2022-08-19T02:37:45;9.88;;;8.15;;
67747;SDS011;54543;50.712;6.070;2022-08-19T02:40:30;9.77;;;7.88;;
67747;SDS011;54543;50.712;6.070;2022-08-19T02:43:03;9.25;;;7.30;;
67747;SDS011;54543;50.712;6.070;2022-08-19T02:45:33;11.23;;;8.52;;
67747;SDS011;54543;50.712;6.070;2022-08-19T02:47:59;9.55;;;7.35;;
67747;SDS011;54543;50.712;6.070;2022-08-19T02:50:25;8.80;;;7.10;;
67747;SDS011;54543;50.712;6.070;2022-08-19T02:52:51;10.15;;;6.97;;
67747;SDS011;54543;50.712;6.070;2022-08-19T02:55:17;8.63;;;7.38;;
67747;SDS011;54543;50.712;6.070;2022-08-19T02:57:42;9.52;;;7.70;;
67747;SDS011;54543;50.712;6.070;2022-08-19T03:00:08;12.00;;;8.40;;
67747;SDS011;54543;50.712;6.070;2022-08-19T03:02:37;9.05;;;6.95;;
67747;SDS011;54543;50.712;6.070;2022-08-19T03:05:03;9.77;;;7.65;;
67747;SDS011;54543;50.712;6.070;2022-08-19T03:07:30;11.82;;;8.20;;
67747;SDS011;54543;50.712;6.070;2022-08-19T03:09:56;10.18;;;8.20;;
67747;SDS011;54543;50.712;6.070;2022-08-19T03:12:21;10.80;;;8.27;;
67747;SDS011;54543;50.712;6.070;2022-08-19T03:14:47;9.65;;;8.15;;
67747;SDS011;54543;50.712;6.070;2022-08-19T03:17:13;10.77;;;7.95;;
67747;SDS011;54543;50.712;6.070;2022-08-19T03:19:38;9.07;;;7.35;;
67747;SDS011;54543;50.712;6.070;2022-08-19T03:22:04;9.27;;;7.22;;
67747;SDS011;54543;50.712;6.070;2022-08-19T03:24:30;10.00;;;8.10;;
67747;SDS011;54543;50.712;6.070;2022-08-19T03:26:56;10.32;;;7.90;;
67747;SDS011;54543;50.712;6.070;2022-08-19T03:29:22;11.57;;;7.88;;
67747;SDS011;54543;50.712;6.070;2022-08-19T03:31:49;12.68;;;10.18;;
67747;SDS011;54543;50.712;6.070;2022-08-19T03:34:18;11.02;;;8.63;;
67747;SDS011;54543;50.712;6.070;2022-08-19T03:36:45;10.35;;;8.25;;
67747;SDS011;54543;50.712;6.070;2022-08-19T03:39:11;10.88;;;8.20;;
67747;SDS011;54543;50.712;6.070;2022-08-19T03:41:39;8.93;;;7.05;;
67747;SDS011;54543;50.712;6.070;2022-08-19T03:44:06;9.68;;;7.45;;
67747;SDS011;54543;50.712;6.070;2022-08-19T03:46:33;8.18;;;6.72;;
67747;SDS011;54543;50.712;6.070;2022-08-19T03:49:01;10.98;;;7.10;;
67747;SDS011;54543;50.712;6.070;2022-08-19T03:51:34;9.07;;;7.10;;
67747;SDS011;54543;50.712;6.070;2022-08-19T03:54:03;10.38;;;7.90;;
67747;SDS011;54543;50.712;6.070;2022-08-19T03:56:31;11.15;;;8.25;;
67747;SDS011;54543;50.712;6.070;2022-08-19T03:58:59;9.52;;;7.70;;
67747;SDS011;54543;50.712;6.070;2022-08-19T04:01:26;10.45;;;7.97;;
67747;SDS011;54543;50.712;6.070;2022-08-19T04:03:55;10.43;;;8.20;;
67747;SDS011;54543;50.712;6.070;2022-08-19T04:06:27;11.95;;;7.82;;
67747;SDS011;54543;50.712;6.070;2022-08-19T04:08:55;11.95;;;8.50;;
67747;SDS011;54543;50.712;6.070;2022-08-19T04:11:24;11.52;;;8.00;;
67747;SDS011;54543;50.712;6.070;2022-08-19T04:13:52;11.60;;;8.63;;
67747;SDS011;54543;50.712;6.070;2022-08-19T04:16:19;11.60;;;8.40;;
67747;SDS011;54543;50.712;6.070;2022-08-19T04:18:46;12.02;;;8.82;;
67747;SDS011;54543;50.712;6.070;2022-08-19T04:21:30;11.55;;;8.32;;
67747;SDS011;54543;50.712;6.070;2022-08-19T04:23:56;12.23;;;9.32;;
67747;SDS011;54543;50.712;6.070;2022-08-19T04:26:24;14.10;;;10.75;;
67747;SDS011;54543;50.712;6.070;2022-08-19T04:28:51;11.82;;;9.48;;
67747;SDS011;54543;50.712;6.070;2022-08-19T04:31:20;13.27;;;10.00;;
67747;SDS011;54543;50.712;6.070;2022-08-19T04:33:47;15.07;;;10.45;;
67747;SDS011;54543;50.712;6.070;2022-08-19T04:36:26;14.10;;;11.13;;
67747;SDS011;54543;50.712;6.070;2022-08-19T04:38:54;12.40;;;9.52;;
67747;SDS011;54543;50.712;6.070;2022-08-19T04:41:22;14.15;;;10.57;;
67747;SDS011;54543;50.712;6.070;2022-08-19T04:44:07;15.33;;;11.83;;
67747;SDS011;54543;50.712;6.070;2022-08-19T04:46:33;16.63;;;12.30;;
67747;SDS011;54543;50.712;6.070;2022-08-19T04:49:00;14.13;;;11.02;;
67747;SDS011;54543;50.712;6.070;2022-08-19T04:51:27;13.02;;;9.88;;
67747;SDS011;54543;50.712;6.070;2022-08-19T04:53:56;15.05;;;10.20;;
67747;SDS011;54543;50.712;6.070;2022-08-19T04:56:22;13.50;;;9.80;;
67747;SDS011;54543;50.712;6.070;2022-08-19T04:58:51;13.98;;;9.85;;
67747;SDS011;54543;50.712;6.070;2022-08-19T05:01:19;13.68;;;9.88;;
67747;SDS011;54543;50.712;6.070;2022-08-19T05:03:49;13.68;;;9.95;;
67747;SDS011;54543;50.712;6.070;2022-08-19T05:06:16;14.13;;;10.65;;
67747;SDS011;54543;50.712;6.070;2022-08-19T05:08:44;13.77;;;9.70;;
67747;SDS011;54543;50.712;6.070;2022-08-19T05:11:14;16.23;;;10.63;;
67747;SDS011;54543;50.712;6.070;2022-08-19T05:13:48;15.68;;;10.48;;
67747;SDS011;54543;50.712;6.070;2022-08-19T05:16:15;14.60;;;10.32;;
67747;SDS011;54543;50.712;6.070;2022-08-19T05:18:43;14.18;;;10.02;;
67747;SDS011;54543;50.712;6.070;2022-08-19T05:21:28;15.13;;;9.80;;
67747;SDS011;54543;50.712;6.070;2022-08-19T05:24:14;13.70;;;10.05;;
67747;SDS011;54543;50.712;6.070;2022-08-19T05:26:42;13.52;;;9.82;;
67747;SDS011;54543;50.712;6.070;2022-08-19T05:29:11;15.10;;;10.25;;
67747;SDS011;54543;50.712;6.070;2022-08-19T05:31:38;16.63;;;11.48;;
67747;SDS011;54543;50.712;6.070;2022-08-19T05:34:05;14.55;;;10.93;;
67747;SDS011;54543;50.712;6.070;2022-08-19T05:36:35;16.35;;;11.23;;
67747;SDS011;54543;50.712;6.070;2022-08-19T05:39:07;15.45;;;10.68;;
67747;SDS011;54543;50.712;6.070;2022-08-19T05:41:33;16.35;;;10.65;;
67747;SDS011;54543;50.712;6.070;2022-08-19T05:44:03;48.05;;;30.63;;
67747;SDS011;54543;50.712;6.070;2022-08-19T05:46:31;20.80;;;15.68;;
67747;SDS011;54543;50.712;6.070;2022-08-19T05:48:57;17.05;;;13.18;;
67747;SDS011;54543;50.712;6.070;2022-08-19T05:51:24;17.23;;;12.77;;
67747;SDS011;54543;50.712;6.070;2022-08-19T05:53:49;15.80;;;11.15;;
67747;SDS011;54543;50.712;6.070;2022-08-19T05:56:16;16.35;;;11.88;;
67747;SDS011;54543;50.712;6.070;2022-08-19T05:58:43;16.55;;;11.75;;
67747;SDS011;54543;50.712;6.070;2022-08-19T06:01:14;19.00;;;13.43;;
67747;SDS011;54543;50.712;6.070;2022-08-19T06:03:43;16.77;;;11.38;;
67747;SDS011;54543;50.712;6.070;2022-08-19T06:06:10;15.65;;;10.75;;
67747;SDS011;54543;50.712;6.070;2022-08-19T06:08:37;17.88;;;11.30;;
67747;SDS011;54543;50.712;6.070;2022-08-19T06:11:17;18.25;;;11.45;;
67747;SDS011;54543;50.712;6.070;2022-08-19T06:13:43;16.52;;;11.45;;
67747;SDS011;54543;50.712;6.070;2022-08-19T06:16:12;20.88;;;11.38;;
67747;SDS011;54543;50.712;6.070;2022-08-19T06:18:37;17.10;;;11.93;;
67747;SDS011;54543;50.712;6.070;2022-08-19T06:21:04;16.58;;;11.55;;
67747;SDS011;54543;50.712;6.070;2022-08-19T06:23:29;19.05;;;12.82;;
67747;SDS011;54543;50.712;6.070;2022-08-19T06:25:55;20.95;;;13.43;;
67747;SDS011;54543;50.712;6.070;2022-08-19T06:28:21;21.08;;;13.02;;
67747;SDS011;54543;50.712;6.070;2022-08-19T06:30:48;20.80;;;13.80;;
67747;SDS011;54543;50.712;6.070;2022-08-19T06:33:15;21.52;;;13.82;;
67747;SDS011;54543;50.712;6.070;2022-08-19T06:35:41;19.23;;;13.60;;
67747;SDS011;54543;50.712;6.070;2022-08-19T06:38:06;20.65;;;13.43;;
67747;SDS011;54543;50.712;6.070;2022-08-19T06:40:33;22.25;;;13.60;;
67747;SDS011;54543;50.712;6.070;2022-08-19T06:42:59;22.58;;;14.27;;
67747;SDS011;54543;50.712;6.070;2022-08-19T06:45:27;23.42;;;14.23;;
67747;SDS011;54543;50.712;6.070;2022-08-19T06:47:52;22.92;;;14.77;;
67747;SDS011;54543;50.712;6.070;2022-08-19T06:50:21;22.70;;;14.55;;
67747;SDS011;54543;50.712;6.070;2022-08-19T06:52:50;23.75;;;15.18;;
67747;SDS011;54543;50.712;6.070;2022-08-19T06:55:16;29.45;;;18.20;;
67747;SDS011;54543;50.712;6.070;2022-08-19T06:57:42;27.85;;;16.52;;
67747;SDS011;54543;50.712;6.070;2022-08-19T07:00:10;29.10;;;18.55;;
67747;SDS011;54543;50.712;6.070;2022-08-19T07:02:38;32.10;;;20.30;;
67747;SDS011;54543;50.712;6.070;2022-08-19T07:05:05;28.95;;;18.42;;
67747;SDS011;54543;50.712;6.070;2022-08-19T07:07:31;32.53;;;19.30;;
67747;SDS011;54543;50.712;6.070;2022-08-19T07:09:56;31.52;;;19.23;;
67747;SDS011;54543;50.712;6.070;2022-08-19T07:12:22;37.47;;;21.08;;
67747;SDS011;54543;50.712;6.070;2022-08-19T07:14:47;39.70;;;21.85;;
67747;SDS011;54543;50.712;6.070;2022-08-19T07:17:14;33.40;;;20.23;;
67747;SDS011;54543;50.712;6.070;2022-08-19T07:19:40;32.90;;;20.70;;
67747;SDS011;54543;50.712;6.070;2022-08-19T07:22:08;50.97;;;27.40;;
67747;SDS011;54543;50.712;6.070;2022-08-19T07:24:35;35.08;;;20.45;;
67747;SDS011;54543;50.712;6.070;2022-08-19T07:27:02;36.83;;;21.60;;
67747;SDS011;54543;50.712;6.070;2022-08-19T07:29:30;30.73;;;18.65;;
67747;SDS011;54543;50.712;6.070;2022-08-19T07:31:58;32.67;;;18.30;;
67747;SDS011;54543;50.712;6.070;2022-08-19T07:34:25;33.08;;;18.83;;
67747;SDS011;54543;50.712;6.070;2022-08-19T07:36:53;29.67;;;20.08;;
67747;SDS011;54543;50.712;6.070;2022-08-19T07:39:21;33.38;;;20.38;;
67747;SDS011;54543;50.712;6.070;2022-08-19T07:41:49;36.28;;;21.45;;
67747;SDS011;54543;50.712;6.070;2022-08-19T07:44:15;34.15;;;20.30;;
67747;SDS011;54543;50.712;6.070;2022-08-19T07:46:43;32.13;;;19.58;;
67747;SDS011;54543;50.712;6.070;2022-08-19T07:49:13;30.25;;;18.65;;
67747;SDS011;54543;50.712;6.070;2022-08-19T07:51:45;30.45;;;19.60;;
67747;SDS011;54543;50.712;6.070;2022-08-19T07:54:15;34.13;;;20.70;;
67747;SDS011;54543;50.712;6.070;2022-08-19T07:56:41;28.23;;;20.45;;
67747;SDS011;54543;50.712;6.070;2022-08-19T07:59:07;33.33;;;21.38;;
67747;SDS011;54543;50.712;6.070;2022-08-19T08:01:34;29.63;;;20.85;;
67747;SDS011;54543;50.712;6.070;2022-08-19T08:04:00;29.90;;;19.02;;
67747;SDS011;54543;50.712;6.070;2022-08-19T08:06:44;31.80;;;21.55;;
67747;SDS011;54543;50.712;6.070;2022-08-19T08:09:33;29.05;;;20.67;;
67747;SDS011;54543;50.712;6.070;2022-08-19T08:12:02;32.90;;;22.25;;
67747;SDS011;54543;50.712;6.070;2022-08-19T08:14:57;35.83;;;24.35;;
67747;SDS011;54543;50.712;6.070;2022-08-19T08:17:27;31.92;;;22.13;;
67747;SDS011;54543;50.712;6.070;2022-08-19T08:19:54;30.35;;;20.35;;
67747;SDS011;54543;50.712;6.070;2022-08-19T08:22:21;27.95;;;20.50;;
67747;SDS011;54543;50.712;6.070;2022-08-19T08:27:38;26.42;;;18.27;;
67747;SDS011;54543;50.712;6.070;2022-08-19T08:30:08;25.95;;;19.30;;
67747;SDS011;54543;50.712;6.070;2022-08-19T08:32:36;36.60;;;24.15;;
67747;SDS011;54543;50.712;6.070;2022-08-19T08:35:04;32.45;;;23.33;;
67747;SDS011;54543;50.712;6.070;2022-08-19T08:37:30;28.75;;;20.27;;
67747;SDS011;54543;50.712;6.070;2022-08-19T08:39:56;29.25;;;20.30;;
67747;SDS011;54543;50.712;6.070;2022-08-19T08:42:29;30.27;;;20.42;;
67747;SDS011;54543;50.712;6.070;2022-08-19T08:45:00;30.77;;;20.75;;
67747;SDS011;54543;50.712;6.070;2022-08-19T08:47:32;25.83;;;17.30;;
67747;SDS011;54543;50.712;6.070;2022-08-19T08:51:04;27.92;;;18.73;;
67747;SDS011;54543;50.712;6.070;2022-08-19T08:53:01;26.50;;;17.85;;
67747;SDS011;54543;50.712;6.070;2022-08-19T08:55:29;31.40;;;21.98;;
67747;SDS011;54543;50.712;6.070;2022-08-19T09:00:25;29.85;;;19.85;;
67747;SDS011;54543;50.712;6.070;2022-08-19T09:02:54;23.55;;;17.67;;
67747;SDS011;54543;50.712;6.070;2022-08-19T09:05:20;26.08;;;19.42;;
67747;SDS011;54543;50.712;6.070;2022-08-19T09:16:07;26.10;;;18.77;;
67747;SDS011;54543;50.712;6.070;2022-08-19T09:18:47;33.17;;;21.80;;
67747;SDS011;54543;50.712;6.070;2022-08-19T09:21:17;24.60;;;17.30;;
67747;SDS011;54543;50.712;6.070;2022-08-19T09:23:44;24.60;;;17.58;;
67747;SDS011;54543;50.712;6.070;2022-08-19T09:26:10;23.50;;;17.75;;
67747;SDS011;54543;50.712;6.070;2022-08-19T09:28:39;29.83;;;19.70;;
67747;SDS011;54543;50.712;6.070;2022-08-19T09:31:08;29.42;;;20.05;;
67747;SDS011;54543;50.712;6.070;2022-08-19T09:33:38;24.48;;;17.13;;
67747;SDS011;54543;50.712;6.070;2022-08-19T09:36:08;25.92;;;18.05;;
67747;SDS011;54543;50.712;6.070;2022-08-19T09:38:35;26.13;;;17.80;;
67747;SDS011;54543;50.712;6.070;2022-08-19T09:41:05;21.98;;;16.23;;
67747;SDS011;54543;50.712;6.070;2022-08-19T09:43:32;22.98;;;16.85;;
67747;SDS011;54543;50.712;6.070;2022-08-19T09:46:04;22.90;;;16.67;;
67747;SDS011;54543;50.712;6.070;2022-08-19T09:48:32;21.58;;;14.85;;
67747;SDS011;54543;50.712;6.070;2022-08-19T09:51:11;26.83;;;16.38;;
67747;SDS011;54543;50.712;6.070;2022-08-19T09:53:41;23.45;;;15.48;;
67747;SDS011;54543;50.712;6.070;2022-08-19T09:56:08;19.60;;;14.65;;
67747;SDS011;54543;50.712;6.070;2022-08-19T09:58:34;24.77;;;16.25;;
67747;SDS011;54543;50.712;6.070;2022-08-19T10:01:01;21.58;;;14.23;;
67747;SDS011;54543;50.712;6.070;2022-08-19T10:03:29;24.48;;;17.15;;
67747;SDS011;54543;50.712;6.070;2022-08-19T10:05:56;21.80;;;14.88;;
67747;SDS011;54543;50.712;6.070;2022-08-19T10:08:27;21.73;;;15.40;;
67747;SDS011;54543;50.712;6.070;2022-08-19T10:10:55;19.33;;;13.73;;
67747;SDS011;54543;50.712;6.070;2022-08-19T10:13:23;19.75;;;15.13;;
67747;SDS011;54543;50.712;6.070;2022-08-19T10:15:54;20.08;;;14.27;;
67747;SDS011;54543;50.712;6.070;2022-08-19T10:18:21;21.17;;;14.18;;
67747;SDS011;54543;50.712;6.070;2022-08-19T10:20:49;21.05;;;14.13;;
67747;SDS011;54543;50.712;6.070;2022-08-19T10:23:16;18.92;;;13.68;;
67747;SDS011;54543;50.712;6.070;2022-08-19T10:25:42;17.40;;;12.82;;
67747;SDS011;54543;50.712;6.070;2022-08-19T10:28:08;18.73;;;13.25;;
67747;SDS011;54543;50.712;6.070;2022-08-19T10:30:37;18.02;;;13.23;;
67747;SDS011;54543;50.712;6.070;2022-08-19T10:33:04;17.52;;;11.60;;
67747;SDS011;54543;50.712;6.070;2022-08-19T10:35:30;15.38;;;12.30;;
67747;SDS011;54543;50.712;6.070;2022-08-19T10:37:56;16.65;;;12.15;;
67747;SDS011;54543;50.712;6.070;2022-08-19T10:40:26;20.45;;;14.63;;
67747;SDS011;54543;50.712;6.070;2022-08-19T10:42:53;18.48;;;13.30;;
67747;SDS011;54543;50.712;6.070;2022-08-19T10:45:20;20.23;;;13.93;;
67747;SDS011;54543;50.712;6.070;2022-08-19T10:47:47;20.08;;;14.18;;
67747;SDS011;54543;50.712;6.070;2022-08-19T10:50:12;23.77;;;16.35;;
67747;SDS011;54543;50.712;6.070;2022-08-19T10:52:57;20.67;;;13.05;;
67747;SDS011;54543;50.712;6.070;2022-08-19T10:55:23;17.80;;;12.50;;
67747;SDS011;54543;50.712;6.070;2022-08-19T10:58:11;17.77;;;12.93;;
67747;SDS011;54543;50.712;6.070;2022-08-19T11:00:39;24.15;;;17.20;;
67747;SDS011;54543;50.712;6.070;2022-08-19T11:03:05;21.85;;;15.80;;
67747;SDS011;54543;50.712;6.070;2022-08-19T11:05:31;19.35;;;13.98;;
67747;SDS011;54543;50.712;6.070;2022-08-19T11:07:56;26.98;;;17.48;;
67747;SDS011;54543;50.712;6.070;2022-08-19T11:10:22;23.65;;;15.52;;
67747;SDS011;54543;50.712;6.070;2022-08-19T11:12:48;27.70;;;17.38;;
67747;SDS011;54543;50.712;6.070;2022-08-19T11:15:19;23.55;;;15.45;;
67747;SDS011;54543;50.712;6.070;2022-08-19T11:17:45;23.63;;;15.23;;
67747;SDS011;54543;50.712;6.070;2022-08-19T11:20:11;23.38;;;16.30;;
67747;SDS011;54543;50.712;6.070;2022-08-19T11:22:38;26.95;;;19.00;;
67747;SDS011;54543;50.712;6.070;2022-08-19T11:25:06;25.92;;;17.98;;
67747;SDS011;54543;50.712;6.070;2022-08-19T11:27:32;23.65;;;16.55;;
67747;SDS011;54543;50.712;6.070;2022-08-19T11:29:58;24.50;;;17.10;;
67747;SDS011;54543;50.712;6.070;2022-08-19T11:32:25;20.55;;;14.80;;
67747;SDS011;54543;50.712;6.070;2022-08-19T11:34:51;17.45;;;12.63;;
67747;SDS011;54543;50.712;6.070;2022-08-19T11:37:16;25.85;;;16.38;;
67747;SDS011;54543;50.712;6.070;2022-08-19T11:39:42;19.48;;;14.23;;
67747;SDS011;54543;50.712;6.070;2022-08-19T11:42:07;19.92;;;14.85;;
67747;SDS011;54543;50.712;6.070;2022-08-19T11:44:52;20.85;;;15.13;;
67747;SDS011;54543;50.712;6.070;2022-08-19T11:47:18;16.95;;;12.18;;
67747;SDS011;54543;50.712;6.070;2022-08-19T11:49:45;17.92;;;12.65;;
67747;SDS011;54543;50.712;6.070;2022-08-19T11:52:11;17.80;;;12.82;;
67747;SDS011;54543;50.712;6.070;2022-08-19T11:54:37;14.70;;;10.02;;
67747;SDS011;54543;50.712;6.070;2022-08-19T11:57:03;16.63;;;10.43;;
67747;SDS011;54543;50.712;6.070;2022-08-19T11:59:29;15.73;;;11.20;;
67747;SDS011;54543;50.712;6.070;2022-08-19T12:01:55;17.45;;;10.77;;
67747;SDS011;54543;50.712;6.070;2022-08-19T12:04:21;16.30;;;11.50;;
67747;SDS011;54543;50.712;6.070;2022-08-19T12:06:47;13.90;;;9.18;;
67747;SDS011;54543;50.712;6.070;2022-08-19T12:09:15;10.85;;;7.82;;
67747;SDS011;54543;50.712;6.070;2022-08-19T12:11:41;11.27;;;8.50;;
67747;SDS011;54543;50.712;6.070;2022-08-19T12:14:09;10.20;;;7.57;;
67747;SDS011;54543;50.712;6.070;2022-08-19T12:16:36;9.35;;;6.90;;
67747;SDS011;54543;50.712;6.070;2022-08-19T12:19:03;10.18;;;7.20;;
67747;SDS011;54543;50.712;6.070;2022-08-19T12:21:30;8.85;;;7.28;;
67747;SDS011;54543;50.712;6.070;2022-08-19T12:23:57;8.23;;;6.00;;
67747;SDS011;54543;50.712;6.070;2022-08-19T12:26:24;9.32;;;6.40;;
67747;SDS011;54543;50.712;6.070;2022-08-19T12:28:51;6.85;;;5.75;;
67747;SDS011;54543;50.712;6.070;2022-08-19T12:31:17;7.95;;;5.82;;
67747;SDS011;54543;50.712;6.070;2022-08-19T12:33:44;7.40;;;5.70;;
67747;SDS011;54543;50.712;6.070;2022-08-19T12:36:11;9.63;;;7.10;;
67747;SDS011;54543;50.712;6.070;2022-08-19T12:38:38;6.70;;;5.22;;
67747;SDS011;54543;50.712;6.070;2022-08-19T12:41:05;7.88;;;5.88;;
67747;SDS011;54543;50.712;6.070;2022-08-19T12:43:36;6.68;;;4.80;;
67747;SDS011;54543;50.712;6.070;2022-08-19T12:46:03;6.25;;;4.25;;
67747;SDS011;54543;50.712;6.070;2022-08-19T12:48:30;5.68;;;3.83;;
67747;SDS011;54543;50.712;6.070;2022-08-19T12:50:56;5.55;;;4.07;;
67747;SDS011;54543;50.712;6.070;2022-08-19T12:53:22;6.22;;;4.28;;
67747;SDS011;54543;50.712;6.070;2022-08-19T12:55:54;4.55;;;3.72;;
67747;SDS011;54543;50.712;6.070;2022-08-19T12:58:21;5.50;;;3.90;;
67747;SDS011;54543;50.712;6.070;2022-08-19T13:00:47;5.72;;;4.80;;
67747;SDS011;54543;50.712;6.070;2022-08-19T13:03:13;7.13;;;3.63;;
67747;SDS011;54543;50.712;6.070;2022-08-19T13:05:39;4.78;;;3.40;;
67747;SDS011;54543;50.712;6.070;2022-08-19T13:08:05;3.05;;;2.47;;
67747;SDS011;54543;50.712;6.070;2022-08-19T13:10:34;4.05;;;2.80;;
67747;SDS011;54543;50.712;6.070;2022-08-19T13:13:01;4.30;;;3.13;;
67747;SDS011;54543;50.712;6.070;2022-08-19T13:15:32;4.15;;;2.55;;
67747;SDS011;54543;50.712;6.070;2022-08-19T13:17:59;3.83;;;2.55;;
67747;SDS011;54543;50.712;6.070;2022-08-19T13:20:24;3.50;;;2.50;;
67747;SDS011;54543;50.712;6.070;2022-08-19T13:22:51;2.60;;;1.98;;
67747;SDS011;54543;50.712;6.070;2022-08-19T13:25:17;3.15;;;2.42;;
67747;SDS011;54543;50.712;6.070;2022-08-19T13:27:45;3.08;;;2.28;;
67747;SDS011;54543;50.712;6.070;2022-08-19T13:30:12;2.65;;;1.75;;
67747;SDS011;54543;50.712;6.070;2022-08-19T13:32:57;4.28;;;1.88;;
67747;SDS011;54543;50.712;6.070;2022-08-19T13:35:42;2.88;;;2.00;;
67747;SDS011;54543;50.712;6.070;2022-08-19T13:38:21;4.20;;;2.25;;
67747;SDS011;54543;50.712;6.070;2022-08-19T13:40:47;2.63;;;2.20;;
67747;SDS011;54543;50.712;6.070;2022-08-19T13:43:15;2.33;;;1.80;;
67747;SDS011;54543;50.712;6.070;2022-08-19T13:45:41;2.63;;;1.90;;
67747;SDS011;54543;50.712;6.070;2022-08-19T13:48:07;2.13;;;1.67;;
67747;SDS011;54543;50.712;6.070;2022-08-19T13:50:34;2.70;;;2.00;;
67747;SDS011;54543;50.712;6.070;2022-08-19T13:53:07;2.72;;;1.83;;
67747;SDS011;54543;50.712;6.070;2022-08-19T13:55:33;2.70;;;2.20;;
67747;SDS011;54543;50.712;6.070;2022-08-19T13:58:00;3.80;;;2.10;;
67747;SDS011;54543;50.712;6.070;2022-08-19T14:00:31;4.05;;;2.33;;
67747;SDS011;54543;50.712;6.070;2022-08-19T14:02:58;3.20;;;2.22;;
67747;SDS011;54543;50.712;6.070;2022-08-19T14:05:25;5.82;;;2.80;;
67747;SDS011;54543;50.712;6.070;2022-08-19T14:07:52;3.55;;;2.78;;
67747;SDS011;54543;50.712;6.070;2022-08-19T14:10:18;5.22;;;2.65;;
67747;SDS011;54543;50.712;6.070;2022-08-19T14:12:44;4.93;;;3.17;;
67747;SDS011;54543;50.712;6.070;2022-08-19T14:15:11;3.85;;;2.30;;
67747;SDS011;54543;50.712;6.070;2022-08-19T14:17:39;2.83;;;2.15;;
67747;SDS011;54543;50.712;6.070;2022-08-19T14:20:06;3.38;;;2.30;;
67747;SDS011;54543;50.712;6.070;2022-08-19T14:22:34;3.50;;;2.70;;
67747;SDS011;54543;50.712;6.070;2022-08-19T14:25:01;3.10;;;2.25;;
67747;SDS011;54543;50.712;6.070;2022-08-19T14:27:28;5.07;;;2.25;;
67747;SDS011;54543;50.712;6.070;2022-08-19T14:29:53;2.90;;;2.30;;
67747;SDS011;54543;50.712;6.070;2022-08-19T14:32:20;3.65;;;1.95;;
67747;SDS011;54543;50.712;6.070;2022-08-19T14:34:46;3.45;;;2.13;;
67747;SDS011;54543;50.712;6.070;2022-08-19T14:37:12;3.17;;;2.20;;
67747;SDS011;54543;50.712;6.070;2022-08-19T14:39:39;3.75;;;2.30;;
67747;SDS011;54543;50.712;6.070;2022-08-19T14:42:09;5.57;;;2.30;;
67747;SDS011;54543;50.712;6.070;2022-08-19T14:44:36;2.45;;;1.92;;
67747;SDS011;54543;50.712;6.070;2022-08-19T14:47:02;2.85;;;2.10;;
67747;SDS011;54543;50.712;6.070;2022-08-19T14:49:29;2.80;;;1.90;;
67747;SDS011;54543;50.712;6.070;2022-08-19T14:51:55;2.90;;;1.70;;
67747;SDS011;54543;50.712;6.070;2022-08-19T14:54:21;3.50;;;1.98;;